Time;durP1;ratioP1;P1;durP2;ratioP2;P2;SDS_P1;SDS_P2;PMS_P1;PMS_P2;Temp;Humidity;BMP_temperature;BMP_pressure;BME280_temperature;BME280_humidity;BME280_pressure;Samples;Min_cycle;Max_cycle;Signal;HPM_P1;HPM_P2
2021/03/02 00:02:19;;;;;;;66.65;31.83;;;;;;;2.32;100.00;102791.56;4932141;29;20035;-79
2021/03/02 00:04:45;;;;;;;68.22;30.98;;;;;;;2.25;100.00;102800.69;4948398;28;20040;-79
2021/03/02 00:07:15;;;;;;;66.82;29.50;;;;;;;2.21;100.00;102796.41;4951610;28;20134;-79
2021/03/02 00:09:42;;;;;;;73.20;31.20;;;;;;;2.18;100.00;102797.41;4947009;28;20141;-79
2021/03/02 00:12:08;;;;;;;69.07;32.55;;;;;;;2.25;100.00;102800.69;4945315;28;20047;-78
2021/03/02 00:14:35;;;;;;;74.05;33.88;;;;;;;2.20;100.00;102794.69;4947012;28;20523;-79
2021/03/02 00:17:04;;;;;;;69.25;30.95;;;;;;;2.21;100.00;102793.75;4950211;28;20047;-79
2021/03/02 00:19:54;;;;;;;75.45;34.40;;;;;;;2.19;100.00;102790.34;4941570;28;20392;-79
2021/03/02 00:22:27;;;;;;;76.30;33.13;;;;;;;2.13;100.00;102802.03;4950013;28;20047;-79
2021/03/02 00:24:58;;;;;;;75.75;32.92;;;;;;;2.13;100.00;102803.81;4953980;28;20051;-79
2021/03/02 00:27:24;;;;;;;69.25;32.38;;;;;;;2.15;100.00;102799.31;4932332;29;20058;-79
2021/03/02 00:29:50;;;;;;;73.88;32.70;;;;;;;2.13;100.00;102798.50;4955895;28;20059;-78
2021/03/02 00:32:18;;;;;;;71.53;33.28;;;;;;;2.16;100.00;102793.13;4928384;28;20102;-79
2021/03/02 00:34:44;;;;;;;70.95;30.85;;;;;;;2.00;100.00;102795.50;4929492;28;20047;-79
2021/03/02 00:37:09;;;;;;;71.35;32.30;;;;;;;1.98;100.00;102792.88;4944638;28;20046;-78
2021/03/02 00:39:35;;;;;;;79.60;32.88;;;;;;;1.95;100.00;102790.34;4947805;28;20063;-78
2021/03/02 00:42:00;;;;;;;72.53;32.83;;;;;;;1.96;100.00;102789.47;4949071;28;20510;-79
2021/03/02 00:44:25;;;;;;;77.10;34.58;;;;;;;1.92;100.00;102786.97;4947904;28;20047;-79
2021/03/02 00:46:51;;;;;;;69.07;33.88;;;;;;;1.92;100.00;102789.63;4947820;28;20107;-79
2021/03/02 00:49:16;;;;;;;75.10;32.65;;;;;;;1.86;100.00;102787.22;4948732;28;20113;-78
2021/03/02 00:51:41;;;;;;;76.95;32.80;;;;;;;1.75;100.00;102785.81;4949930;28;20039;-79
2021/03/02 00:54:07;;;;;;;73.75;32.83;;;;;;;1.76;100.00;102792.00;4955173;28;20047;-78
2021/03/02 00:56:32;;;;;;;74.35;32.78;;;;;;;1.78;100.00;102785.75;4950796;28;20063;-78
2021/03/02 00:58:57;;;;;;;77.03;32.80;;;;;;;1.69;100.00;102795.78;4950212;28;20388;-78
2021/03/02 01:01:23;;;;;;;74.68;34.30;;;;;;;1.72;100.00;102782.44;4958015;28;20047;-78
2021/03/02 01:03:48;;;;;;;72.88;31.27;;;;;;;1.66;100.00;102791.47;4945020;28;20531;-79
2021/03/02 01:06:14;;;;;;;74.25;34.25;;;;;;;1.63;100.00;102783.66;4946367;28;20394;-79
2021/03/02 01:08:39;;;;;;;75.43;33.88;;;;;;;1.56;100.00;102785.69;4913251;28;20508;-79
2021/03/02 01:11:04;;;;;;;78.22;35.58;;;;;;;1.62;100.00;102776.66;4947513;28;20398;-78
2021/03/02 01:13:30;;;;;;;80.40;33.28;;;;;;;1.58;100.00;102778.56;4956119;28;20466;-78
2021/03/02 01:15:56;;;;;;;83.97;37.58;;;;;;;1.54;100.00;102774.28;4946871;28;20039;-78
2021/03/02 01:18:21;;;;;;;87.40;35.88;;;;;;;1.51;100.00;102779.69;4948261;28;20500;-78
2021/03/02 01:20:46;;;;;;;84.45;36.30;;;;;;;1.55;100.00;102770.72;4945876;28;20054;-79
2021/03/02 01:23:12;;;;;;;76.88;34.42;;;;;;;1.47;100.00;102771.94;4951478;28;20047;-78
2021/03/02 01:25:37;;;;;;;82.00;35.47;;;;;;;1.44;100.00;102767.63;4919588;28;20507;-78
2021/03/02 01:28:03;;;;;;;88.15;37.38;;;;;;;1.48;100.00;102774.50;4947383;28;20043;-78
2021/03/02 01:30:28;;;;;;;92.00;38.17;;;;;;;1.45;100.00;102764.03;4951410;28;20047;-78
2021/03/02 01:32:54;;;;;;;89.45;36.42;;;;;;;1.42;100.00;102771.25;4934365;29;20047;-78
2021/03/02 01:35:19;;;;;;;87.60;35.60;;;;;;;1.42;100.00;102768.59;4950391;29;20400;-78
2021/03/02 01:37:45;;;;;;;88.03;36.70;;;;;;;1.45;100.00;102764.03;4948286;28;20059;-79
2021/03/02 01:40:16;;;;;;;84.85;37.53;;;;;;;1.43;100.00;102763.22;4947295;28;20048;-79
2021/03/02 01:42:42;;;;;;;84.85;35.63;;;;;;;1.37;100.00;102754.66;4944445;28;20031;-79
2021/03/02 01:45:13;;;;;;;90.15;36.65;;;;;;;1.40;100.00;102755.41;4942711;28;20395;-78
2021/03/02 01:47:40;;;;;;;95.78;39.97;;;;;;;1.42;100.00;102753.56;4945679;28;20035;-79
2021/03/02 01:50:08;;;;;;;83.47;33.53;;;;;;;1.33;100.00;102753.91;4944783;28;20492;-79
2021/03/02 01:52:34;;;;;;;91.38;37.63;;;;;;;1.34;100.00;102747.69;4944988;28;20058;-78
2021/03/02 01:55:01;;;;;;;90.38;37.90;;;;;;;1.34;100.00;102739.75;4948116;28;20134;-78
2021/03/02 01:57:26;;;;;;;97.43;41.13;;;;;;;1.33;100.00;102751.28;4943313;28;20511;-78
2021/03/02 01:59:51;;;;;;;97.00;37.55;;;;;;;1.31;100.00;102745.19;4945052;28;20043;-78
2021/03/02 02:02:28;;;;;;;94.53;35.65;;;;;;;1.24;100.00;102743.69;4947856;28;20392;-78
2021/03/02 02:04:56;;;;;;;88.78;37.00;;;;;;;1.20;100.00;102752.63;4946778;28;20087;-78
2021/03/02 02:07:40;;;;;;;91.80;37.87;;;;;;;1.20;100.00;102744.69;4941391;28;20126;-78
2021/03/02 02:10:17;;;;;;;91.45;37.80;;;;;;;1.23;100.00;102741.94;4930456;29;20132;-78
2021/03/02 02:12:53;;;;;;;95.43;39.20;;;;;;;1.21;100.00;102741.13;4944979;28;20499;-79
2021/03/02 02:15:27;;;;;;;91.57;38.85;;;;;;;1.16;100.00;102735.16;4945137;28;20430;-79
2021/03/02 02:18:01;;;;;;;96.78;38.85;;;;;;;1.14;100.00;102735.22;4950180;28;20054;-78
2021/03/02 02:21:05;;;;;;;94.95;37.53;;;;;;;1.14;100.00;102735.22;4952075;28;20050;-78
2021/03/02 02:23:58;;;;;;;90.43;37.90;;;;;;;1.13;100.00;102739.63;4900927;29;20105;-78
2021/03/02 02:26:49;;;;;;;99.00;38.53;;;;;;;1.08;100.00;102738.06;4901623;29;20453;-78
2021/03/02 02:29:18;;;;;;;101.30;41.25;;;;;;;1.10;100.00;102737.09;4934774;28;20044;-78
2021/03/02 02:31:46;;;;;;;97.13;39.90;;;;;;;1.12;100.00;102739.69;4958972;28;20074;-78
2021/03/02 02:34:15;;;;;;;103.82;40.83;;;;;;;1.12;100.00;102735.28;4950742;28;20045;-78
2021/03/02 02:36:41;;;;;;;101.32;42.17;;;;;;;1.11;100.00;102740.63;4947354;28;20130;-78
2021/03/02 02:39:07;;;;;;;89.40;37.75;;;;;;;1.13;100.00;102737.00;4946775;28;20566;-78
2021/03/02 02:41:33;;;;;;;103.07;40.22;;;;;;;1.09;100.00;102739.78;4948931;28;20043;-78
2021/03/02 02:44:00;;;;;;;90.70;37.95;;;;;;;1.09;100.00;102739.78;4949580;28;20047;-78
2021/03/02 02:46:26;;;;;;;101.72;42.42;;;;;;;1.14;100.00;102737.84;4928773;29;20245;-78
2021/03/02 02:48:56;;;;;;;92.70;39.35;;;;;;;1.10;100.00;102731.81;4948673;28;20055;-78
2021/03/02 02:51:22;;;;;;;97.75;39.63;;;;;;;1.13;100.00;102736.13;4964029;28;20407;-78
2021/03/02 02:53:47;;;;;;;99.30;38.85;;;;;;;1.05;100.00;102731.13;4952730;28;20119;-78
2021/03/02 02:56:17;;;;;;;100.82;38.75;;;;;;;1.03;100.00;102729.44;4952910;29;20325;-78
2021/03/02 02:59:08;;;;;;;95.15;40.42;;;;;;;1.01;100.00;102732.16;4935210;28;21709;-78
2021/03/02 03:01:39;;;;;;;100.43;41.17;;;;;;;0.96;100.00;102731.44;4949795;28;20114;-78
2021/03/02 03:04:08;;;;;;;96.93;39.97;;;;;;;0.93;100.00;102726.28;4948230;28;20062;-78
2021/03/02 03:06:39;;;;;;;96.60;39.83;;;;;;;0.94;100.00;102735.06;4946732;28;20142;-77
2021/03/02 03:09:06;;;;;;;99.40;40.15;;;;;;;0.98;100.00;102731.38;4951465;28;20054;-78
2021/03/02 03:11:39;;;;;;;97.65;39.65;;;;;;;0.95;100.00;102729.75;4953166;28;20149;-78
2021/03/02 03:14:08;;;;;;;98.00;41.40;;;;;;;0.95;100.00;102739.41;4952385;28;20139;-78
2021/03/02 03:16:35;;;;;;;103.35;41.97;;;;;;;1.01;100.00;102740.09;4948253;28;20499;-78
2021/03/02 03:19:02;;;;;;;96.30;40.40;;;;;;;1.00;100.00;102738.34;4948457;28;20059;-78
2021/03/02 03:21:28;;;;;;;104.15;43.55;;;;;;;0.97;100.00;102735.81;4946826;28;20047;-78
2021/03/02 03:23:56;;;;;;;101.85;41.83;;;;;;;0.94;100.00;102738.56;4948623;28;20051;-78
2021/03/02 03:26:24;;;;;;;105.03;40.03;;;;;;;0.88;100.00;102731.72;4950054;28;20359;-78
2021/03/02 03:28:52;;;;;;;99.75;40.75;;;;;;;0.89;100.00;102732.56;4943984;28;20557;-78
2021/03/02 03:31:18;;;;;;;97.38;42.50;;;;;;;0.93;100.00;102733.34;4950518;28;20428;-78
2021/03/02 03:33:44;;;;;;;108.93;43.55;;;;;;;0.98;100.00;102731.38;4948740;28;20055;-78
2021/03/02 03:36:11;;;;;;;100.18;41.60;;;;;;;0.95;100.00;102729.75;4928508;28;20515;-79
2021/03/02 03:38:37;;;;;;;101.85;41.17;;;;;;;0.94;100.00;102735.91;4911443;28;20047;-78
2021/03/02 03:41:03;;;;;;;102.35;43.67;;;;;;;0.94;100.00;102738.56;4936258;29;20039;-78
2021/03/02 03:43:28;;;;;;;104.32;41.78;;;;;;;0.89;100.00;102733.47;4948043;28;20046;-78
2021/03/02 03:45:54;;;;;;;92.63;39.20;;;;;;;0.88;100.00;102731.72;4963752;28;20050;-79
2021/03/02 03:48:19;;;;;;;102.97;43.15;;;;;;;0.83;100.00;102736.28;4949237;28;20039;-78
2021/03/02 03:50:45;;;;;;;98.40;41.42;;;;;;;0.83;100.00;102730.16;4948537;28;20075;-78
2021/03/02 03:53:13;;;;;;;98.10;40.45;;;;;;;0.83;100.00;102732.78;4946903;28;20393;-79
2021/03/02 03:55:42;;;;;;;100.07;41.47;;;;;;;0.82;100.00;102731.06;4948608;28;20190;-78
2021/03/02 03:58:22;;;;;;;106.70;44.42;;;;;;;0.81;100.00;102746.06;4945378;28;20054;-79
2021/03/02 04:00:51;;;;;;;100.47;42.25;;;;;;;0.84;100.00;102734.53;4943507;28;20046;-78
2021/03/02 04:03:17;;;;;;;;;;;;;;;0.76;100.00;102742.72;4949897;28;20400;-78
2021/03/02 04:05:43;;;;;;;100.25;39.60;;;;;;;0.66;100.00;102734.25;4942727;28;19924;-78
2021/03/02 04:08:09;;;;;;;108.18;42.75;;;;;;;0.69;100.00;102746.47;4957016;28;20042;-78
2021/03/02 04:10:35;;;;;;;106.95;43.75;;;;;;;0.66;100.00;102736.03;4951388;28;20154;-78
2021/03/02 04:13:08;;;;;;;99.97;42.13;;;;;;;0.61;100.00;102735.34;4951902;28;20118;-78
2021/03/02 04:15:34;;;;;;;102.82;40.85;;;;;;;0.57;100.00;102741.63;4945428;28;20086;-78
2021/03/02 04:17:59;;;;;;;103.95;43.20;;;;;;;0.62;100.00;102739.69;4950795;28;20046;-79
2021/03/02 04:20:25;;;;;;;98.22;40.45;;;;;;;0.57;100.00;102739.84;4950912;28;20039;-78
2021/03/02 04:22:51;;;;;;;114.85;43.25;;;;;;;0.60;100.00;102741.53;4947228;28;20050;-78
2021/03/02 04:25:16;;;;;;;103.05;41.97;;;;;;;0.61;100.00;102741.47;4950772;28;20043;-79
2021/03/02 04:27:42;;;;;;;114.75;41.75;;;;;;;0.65;100.00;102743.09;4947336;28;20039;-79
2021/03/02 04:30:08;;;;;;;103.45;41.50;;;;;;;0.59;100.00;102735.38;4961434;28;20043;-79
2021/03/02 04:32:35;;;;;;;105.95;43.22;;;;;;;0.65;100.00;102735.16;4946701;28;20058;-79
2021/03/02 04:35:00;;;;;;;98.40;40.25;;;;;;;0.64;100.00;102738.72;4947494;28;20046;-79
2021/03/02 04:37:26;;;;;;;101.65;42.72;;;;;;;0.62;100.00;102735.28;4923005;28;20043;-79
2021/03/02 04:39:51;;;;;;;111.38;41.47;;;;;;;0.64;100.00;102733.44;4946838;28;20504;-79
2021/03/02 04:42:16;;;;;;;104.97;42.00;;;;;;;0.60;100.00;102739.72;4926513;29;20038;-79
2021/03/02 04:44:42;;;;;;;103.28;41.67;;;;;;;0.61;100.00;102732.69;4946864;28;20035;-79
2021/03/02 04:47:07;;;;;;;109.82;42.08;;;;;;;0.59;100.00;102735.38;4939550;28;20102;-79
2021/03/02 04:49:33;;;;;;;106.72;42.45;;;;;;;0.60;100.00;102723.88;4946052;28;20074;-79
2021/03/02 04:51:58;;;;;;;106.25;43.22;;;;;;;0.60;100.00;102726.53;4947128;28;20054;-79
2021/03/02 04:54:25;;;;;;;103.05;41.03;;;;;;;0.57;100.00;102723.97;4948200;28;20046;-79
2021/03/02 04:56:51;;;;;;;111.32;44.10;;;;;;;0.57;100.00;102728.41;4947015;28;20062;-79
2021/03/02 04:59:16;;;;;;;112.30;44.42;;;;;;;0.60;100.00;102731.81;4945609;28;20043;-79
2021/03/02 05:01:41;;;;;;;115.45;46.33;;;;;;;0.56;100.00;102724.91;4945139;28;20523;-79
2021/03/02 05:04:07;;;;;;;98.57;39.85;;;;;;;0.48;100.00;102726.94;4944471;28;20132;-79
2021/03/02 05:06:32;;;;;;;104.82;41.85;;;;;;;0.47;100.00;102727.00;4942682;28;20070;-79
2021/03/02 05:08:57;;;;;;;102.63;43.42;;;;;;;0.49;100.00;102728.69;4946100;28;20440;-79
2021/03/02 05:11:23;;;;;;;101.97;39.83;;;;;;;0.39;100.00;102729.91;4945278;28;20054;-79
2021/03/02 05:13:48;;;;;;;112.65;43.28;;;;;;;0.47;100.00;102724.38;4939509;28;20577;-79
2021/03/02 05:16:14;;;;;;;113.32;43.58;;;;;;;0.49;100.00;102723.41;4947042;28;20412;-79
2021/03/02 05:18:40;;;;;;;91.90;40.47;;;;;;;0.51;100.00;102726.84;4942962;28;20043;-79
2021/03/02 05:21:06;;;;;;;106.63;43.38;;;;;;;0.49;100.00;102728.69;4939544;28;20131;-79
2021/03/02 05:23:31;;;;;;;100.40;40.45;;;;;;;0.51;100.00;102721.56;4949858;28;20142;-79
2021/03/02 05:25:57;;;;;;;104.97;43.85;;;;;;;0.51;100.00;102718.06;4933765;29;20047;-79
2021/03/02 05:28:24;;;;;;;106.30;42.63;;;;;;;0.42;100.00;102722.72;4944641;28;20062;-79
2021/03/02 05:30:50;;;;;;;100.13;43.25;;;;;;;0.44;100.00;102728.84;4949943;28;20051;-79
2021/03/02 05:33:15;;;;;;;101.38;42.25;;;;;;;0.40;100.00;102719.31;4963878;28;20031;-79
2021/03/02 05:35:40;;;;;;;108.85;44.42;;;;;;;0.42;100.00;102719.22;4945625;28;20043;-79
2021/03/02 05:38:06;;;;;;;103.95;42.97;;;;;;;0.46;100.00;102723.47;4947629;28;20122;-79
2021/03/02 05:40:31;;;;;;;97.78;39.22;;;;;;;0.42;100.00;102724.53;4923137;28;20052;-79
2021/03/02 05:42:57;;;;;;;104.97;43.03;;;;;;;0.44;100.00;102720.06;4947351;28;20058;-79
2021/03/02 05:45:22;;;;;;;100.35;42.70;;;;;;;0.43;100.00;102718.31;4950007;28;20039;-79
2021/03/02 05:47:49;;;;;;;95.82;39.42;;;;;;;0.32;100.00;102725.75;4944062;28;20467;-79
2021/03/02 05:50:15;;;;;;;104.90;41.95;;;;;;;0.31;100.00;102722.22;4949169;28;20047;-79
2021/03/02 05:52:41;;;;;;;99.15;41.85;;;;;;;0.33;100.00;102724.84;4930774;28;20039;-79
2021/03/02 05:55:07;;;;;;;103.03;42.85;;;;;;;0.37;100.00;102718.53;4948497;28;20509;-79
2021/03/02 05:57:33;;;;;;;97.35;39.13;;;;;;;0.33;100.00;102724.84;4959456;28;20035;-79
2021/03/02 06:00:00;;;;;;;100.78;42.20;;;;;;;0.36;100.00;102727.38;4949236;28;20375;-79
2021/03/02 06:02:26;;;;;;;97.60;42.83;;;;;;;0.33;100.00;102720.41;4945192;28;20122;-79
2021/03/02 06:04:51;;;;;;;103.32;41.78;;;;;;;0.31;100.00;102724.00;4950432;28;20126;-78
2021/03/02 06:07:17;;;;;;;91.68;40.88;;;;;;;0.25;100.00;102724.22;4961397;28;20393;-79
2021/03/02 06:09:44;;;;;;;88.43;39.45;;;;;;;0.18;100.00;102724.41;4948161;28;20484;-79
2021/03/02 06:12:09;;;;;;;105.88;43.13;;;;;;;0.24;100.00;102725.13;4945867;28;20055;-79
2021/03/02 06:14:35;;;;;;;105.68;42.65;;;;;;;0.27;100.00;102720.63;4946658;28;20050;-79
2021/03/02 06:17:02;;;;;;;90.63;40.10;;;;;;;0.26;100.00;102724.19;4948921;28;20555;-79
2021/03/02 06:19:48;;;;;;;90.60;38.85;;;;;;;0.27;100.00;102723.25;4948825;28;20149;-79
2021/03/02 06:22:52;;;;;;;95.72;39.47;;;;;;;0.29;100.00;102723.19;4930105;28;20054;-79
2021/03/02 06:25:28;;;;;;;97.35;42.22;;;;;;;0.31;100.00;102726.66;4851218;29;20505;-79
2021/03/02 06:27:54;;;;;;;102.57;42.78;;;;;;;0.31;100.00;102724.00;4906734;29;20052;-79
2021/03/02 06:30:20;;;;;;;99.22;43.85;;;;;;;0.33;100.00;102727.47;4927197;29;20042;-79
2021/03/02 06:32:48;;;;;;;100.68;43.17;;;;;;;0.36;100.00;102727.38;4968051;28;20393;-79
2021/03/02 06:35:28;;;;;;;95.32;43.75;;;;;;;0.42;100.00;102735.09;4950630;28;20043;-79
2021/03/02 06:37:54;;;;;;;101.68;42.97;;;;;;;0.42;100.00;102733.28;4943206;28;20507;-79
2021/03/02 06:40:35;;;;;;;88.47;39.83;;;;;;;0.38;100.00;102736.13;4949981;28;20035;-79
2021/03/02 06:43:01;;;;;;;98.82;42.33;;;;;;;0.37;100.00;102731.72;4944656;28;20067;-79
2021/03/02 06:45:26;;;;;;;101.88;43.85;;;;;;;0.40;100.00;102734.25;4963460;28;20126;-79
2021/03/02 06:48:01;;;;;;;99.90;44.45;;;;;;;0.40;100.00;102740.44;4950219;28;20691;-79
2021/03/02 06:50:26;;;;;;;89.32;41.80;;;;;;;0.39;100.00;102735.19;4942633;28;20047;-79
2021/03/02 06:52:53;;;;;;;95.47;43.97;;;;;;;0.46;100.00;102728.75;4945794;28;20050;-79
2021/03/02 06:55:18;;;;;;;100.28;44.55;;;;;;;0.51;100.00;102736.56;4945359;28;20036;-79
2021/03/02 06:57:45;;;;;;;94.65;44.38;;;;;;;0.59;100.00;102731.88;4945091;28;20449;-79
2021/03/02 07:00:12;;;;;;;90.07;43.60;;;;;;;0.64;100.00;102729.94;4949383;28;20039;-79
2021/03/02 07:02:45;;;;;;;90.88;42.85;;;;;;;0.67;100.00;102740.41;4944914;28;20035;-79
2021/03/02 07:05:15;;;;;;;87.03;42.95;;;;;;;0.74;100.00;102739.25;4953061;28;20483;-78
2021/03/02 07:07:42;;;;;;;94.90;44.15;;;;;;;0.81;100.00;102737.28;4951061;28;20066;-78
2021/03/02 07:10:10;;;;;;;92.68;43.03;;;;;;;0.88;100.00;102737.00;4950591;29;20044;-78
2021/03/02 07:12:40;;;;;;;95.10;44.42;;;;;;;0.94;100.00;102743.84;4933539;28;20523;-78
2021/03/02 07:15:14;;;;;;;89.50;42.88;;;;;;;1.03;100.00;102745.31;4950885;28;20035;-79
2021/03/02 07:17:44;;;;;;;89.53;42.03;;;;;;;1.05;100.00;102748.75;4950635;28;20035;-78
2021/03/02 07:20:11;;;;;;;84.00;42.22;;;;;;;1.16;100.00;102748.38;4952658;28;20504;-78
2021/03/02 07:22:39;;;;;;;84.78;43.70;;;;;;;1.22;100.00;102746.38;4949144;28;20074;-79
2021/03/02 07:25:09;;;;;;;91.22;42.78;;;;;;;1.28;100.00;102753.22;4951659;28;20077;-78
2021/03/02 07:27:39;;;;;;;85.78;42.70;;;;;;;1.38;100.00;102749.31;4949051;28;20043;-79
2021/03/02 07:30:05;;;;;;;81.32;43.45;;;;;;;1.47;100.00;102745.47;4966018;28;20500;-78
2021/03/02 07:32:31;;;;;;;78.55;41.97;;;;;;;1.53;100.00;102746.09;4949932;28;20058;-79
2021/03/02 07:34:58;;;;;;;75.03;38.20;;;;;;;1.60;100.00;102735.28;4948712;28;20039;-78
2021/03/02 07:37:24;;;;;;;77.13;40.47;;;;;;;1.72;100.00;102745.38;4951858;28;20065;-79
2021/03/02 07:40:19;;;;;;;72.63;38.33;;;;;;;1.80;100.00;102743.31;4946229;28;20050;-78
2021/03/02 07:42:45;;;;;;;79.47;39.50;;;;;;;1.87;100.00;102742.16;4943836;28;20109;-79
2021/03/02 07:45:13;;;;;;;74.70;39.15;;;;;;;1.96;100.00;102746.22;4951622;28;20039;-79
2021/03/02 07:48:23;;;;;;;67.72;36.42;;;;;;;2.02;100.00;102752.13;4949908;28;20130;-78
2021/03/02 07:51:21;;;;;;;66.85;34.92;;;;;;;2.14;100.00;102755.22;4943161;28;20120;-79
2021/03/02 07:53:48;;;;;;;63.75;34.13;;;;;;;2.24;100.00;102759.19;4941450;28;20047;-78
2021/03/02 07:56:20;;;;;;;62.08;32.45;;;;;;;2.35;100.00;102754.34;4941646;28;20440;-79
2021/03/02 07:59:04;;;;;;;59.33;33.88;;;;;;;2.49;100.00;102753.75;4946680;28;20166;-79
2021/03/02 08:01:30;;;;;;;58.25;32.40;;;;;;;2.53;100.00;102750.03;4948886;28;20041;-79
2021/03/02 08:04:14;;;;;;;64.22;34.97;;;;;;;2.62;100.00;102752.34;4947462;28;20043;-79
2021/03/02 08:06:39;;;;;;;54.72;31.38;;;;;;;2.73;100.00;102762.47;4948231;28;20038;-80
2021/03/02 08:09:26;;;;;;;56.58;32.05;;;;;;;2.86;100.00;102757.50;4949580;28;20038;-79
2021/03/02 08:11:54;;;;;;;52.05;31.60;;;;;;;2.97;100.00;102755.25;4944955;28;20134;-78
2021/03/02 08:14:23;;;;;;;54.85;30.70;;;;;;;3.11;100.00;102752.00;4949003;28;20039;-78
2021/03/02 08:17:02;;;;;;;52.45;30.90;;;;;;;3.13;100.00;102758.06;4948268;28;20093;-78
2021/03/02 08:19:37;;;;;;;53.20;31.50;;;;;;;3.24;100.00;102747.00;4949876;28;20045;-77
2021/03/02 08:22:32;;;;;;;53.03;31.23;;;;;;;3.42;100.00;102759.41;4951873;28;20059;-78
2021/03/02 08:24:59;;;;;;;48.65;29.65;;;;;;;3.49;100.00;102763.53;4948838;28;20054;-78
2021/03/02 08:27:38;;;;;;;47.75;27.48;;;;;;;3.65;100.00;102758.38;4950823;28;20048;-78
2021/03/02 08:30:06;;;;;;;44.30;26.88;;;;;;;3.82;100.00;102769.06;4956572;28;20052;-78
2021/03/02 08:32:31;;;;;;;45.97;25.95;;;;;;;3.97;100.00;102766.59;4948986;29;20528;-76
2021/03/02 08:35:03;;;;;;;42.20;27.10;;;;;;;4.05;100.00;102767.09;4965815;28;20139;-77
2021/03/02 08:37:39;;;;;;;45.03;27.35;;;;;;;4.16;100.00;102771.91;4951817;28;20039;-77
2021/03/02 08:40:06;;;;;;;45.55;26.88;;;;;;;4.23;100.00;102766.22;4947827;28;20039;-77
2021/03/02 08:42:31;;;;;;;42.13;25.15;;;;;;;4.24;100.00;102773.25;4947178;28;20043;-78
2021/03/02 08:45:09;;;;;;;41.05;25.95;;;;;;;4.37;100.00;102762.00;4938060;28;20051;-80
2021/03/02 08:47:35;;;;;;;41.70;26.42;;;;;;;4.56;100.00;102768.16;4948059;28;20055;-79
2021/03/02 08:50:02;;;;;;;38.80;23.88;;;;;;;4.61;100.00;102766.13;4947100;28;20068;-80
2021/03/02 08:52:40;;;;;;;36.30;23.42;;;;;;;4.79;100.00;102763.47;4949118;28;20039;-79
2021/03/02 08:55:07;;;;;;;40.90;24.67;;;;;;;4.87;99.96;102756.81;4910573;29;20492;-79
2021/03/02 08:57:45;;;;;;;34.55;22.23;;;;;;;5.09;100.00;102763.66;4944346;28;20233;-79
2021/03/02 09:00:16;;;;;;;33.53;21.40;;;;;;;5.31;98.95;102763.41;4957013;28;20062;-79
2021/03/02 09:02:45;;;;;;;26.95;17.85;;;;;;;5.59;99.03;102766.28;4950267;28;20046;-80
2021/03/02 09:05:19;;;;;;;27.50;18.80;;;;;;;5.88;97.14;102755.84;4948357;28;20035;-79
2021/03/02 09:08:07;;;;;;;24.73;16.48;;;;;;;6.16;95.36;102752.50;4951083;28;20038;-80
2021/03/02 09:10:33;;;;;;;24.02;15.23;;;;;;;6.39;93.14;102753.84;4944494;28;20130;-79
2021/03/02 09:12:58;;;;;;;24.17;14.63;;;;;;;6.56;91.52;102752.84;4961903;28;20039;-79
2021/03/02 09:15:35;;;;;;;19.95;12.07;;;;;;;6.73;89.36;102746.50;4928875;29;20139;-80
2021/03/02 09:18:14;;;;;;;18.67;12.95;;;;;;;7.04;89.28;102748.19;4941848;28;20396;-80
2021/03/02 09:20:39;;;;;;;17.83;11.65;;;;;;;7.24;85.19;102741.63;4950623;28;20105;-79
2021/03/02 09:23:05;;;;;;;19.55;11.63;;;;;;;7.40;85.05;102738.88;4934670;28;20047;-80
2021/03/02 09:25:34;;;;;;;15.27;11.35;;;;;;;7.54;83.70;102730.84;4964981;28;20050;-79
2021/03/02 09:27:59;;;;;;;18.90;10.70;;;;;;;7.74;82.39;102742.03;4948058;28;20508;-80
2021/03/02 09:30:25;;;;;;;17.65;11.25;;;;;;;7.81;80.61;102738.91;4948298;28;20102;-80
2021/03/02 09:32:55;;;;;;;16.17;11.27;;;;;;;7.91;80.65;102734.69;4930175;28;20518;-80
2021/03/02 09:35:20;;;;;;;15.13;10.05;;;;;;;8.07;79.76;102739.03;4940677;28;20054;-79
2021/03/02 09:37:46;;;;;;;14.10;10.20;;;;;;;8.19;78.09;102740.03;4945907;28;20051;-80
2021/03/02 09:40:13;;;;;;;17.77;11.52;;;;;;;8.30;79.31;102732.16;4927067;29;20500;-79
2021/03/02 09:42:41;;;;;;;15.65;10.77;;;;;;;8.43;78.39;102737.56;4947372;28;20408;-80
2021/03/02 09:45:18;;;;;;;15.07;11.07;;;;;;;8.60;78.75;102734.59;4940418;28;20035;-80
2021/03/02 09:47:45;;;;;;;16.17;11.27;;;;;;;8.76;78.49;102732.59;4944381;28;20132;-80
2021/03/02 09:50:14;;;;;;;16.55;10.18;;;;;;;8.87;77.94;102726.53;4947617;29;20073;-80
2021/03/02 09:52:44;;;;;;;15.32;9.43;;;;;;;9.11;76.69;102734.66;4946755;28;20130;-80
2021/03/02 09:55:14;;;;;;;14.10;9.23;;;;;;;9.20;75.46;102736.69;4936992;28;20396;-80
2021/03/02 09:58:06;;;;;;;15.73;9.88;;;;;;;9.42;76.25;102733.34;4963417;28;20039;-80
2021/03/02 10:00:41;;;;;;;12.57;9.00;;;;;;;9.55;75.42;102736.03;4951273;28;20050;-80
2021/03/02 10:03:22;;;;;;;12.90;8.65;;;;;;;9.63;74.00;102728.25;4948534;29;20039;-80
2021/03/02 10:05:58;;;;;;;16.60;9.52;;;;;;;9.71;75.19;102728.56;4949172;28;20555;-80
2021/03/02 10:08:26;;;;;;;14.30;8.55;;;;;;;9.81;72.68;102734.13;4946536;28;20047;-80
2021/03/02 10:11:14;;;;;;;11.73;8.10;;;;;;;9.91;72.25;102737.84;4949173;28;20358;-80
2021/03/02 10:13:45;;;;;;;11.85;8.38;;;;;;;10.06;71.24;102729.63;4943878;28;20695;-80
2021/03/02 10:16:24;;;;;;;10.43;6.95;;;;;;;10.21;70.91;102723.13;4944118;28;20139;-80
2021/03/02 10:19:16;;;;;;;13.30;8.15;;;;;;;10.41;70.62;102724.34;4947664;28;20427;-80
2021/03/02 10:21:42;;;;;;;11.52;7.60;;;;;;;10.57;70.64;102724.03;4946650;28;20035;-80
2021/03/02 10:24:08;;;;;;;11.00;8.07;;;;;;;10.68;68.70;102725.91;4942476;28;20039;-80
2021/03/02 10:26:36;;;;;;;11.15;8.07;;;;;;;10.77;68.58;102715.31;4945488;28;20570;-81
2021/03/02 10:29:06;;;;;;;11.52;7.53;;;;;;;10.88;67.38;102713.63;4947357;28;20051;-77
2021/03/02 10:31:31;;;;;;;16.27;7.68;;;;;;;10.98;66.73;102715.47;4949552;28;20055;-80
2021/03/02 10:34:00;;;;;;;12.35;7.68;;;;;;;11.05;67.24;102713.16;4949021;28;20098;-77
2021/03/02 10:36:32;;;;;;;11.38;7.50;;;;;;;11.08;66.84;102723.66;4948535;28;20043;-78
2021/03/02 10:38:58;;;;;;;11.23;8.18;;;;;;;11.29;67.93;102715.72;4938346;28;20062;-81
2021/03/02 10:41:27;;;;;;;10.55;6.80;;;;;;;11.41;64.51;102719.28;4951218;28;20055;-80
2021/03/02 10:43:53;;;;;;;;;;;;;;;11.44;65.18;102719.88;4948175;28;20152;-78
2021/03/02 10:46:20;;;;;;;11.75;7.55;;;;;;;11.40;65.56;102717.56;4948167;28;19995;-80
2021/03/02 10:48:46;;;;;;;11.60;7.32;;;;;;;11.51;64.95;102717.56;4948815;28;20336;-77
2021/03/02 10:51:16;;;;;;;9.82;6.50;;;;;;;11.72;65.12;102707.75;4951538;28;20047;-78
2021/03/02 10:53:41;;;;;;;12.75;7.50;;;;;;;11.89;65.07;102708.25;4949067;28;20319;-78
2021/03/02 10:56:06;;;;;;;10.13;7.00;;;;;;;11.97;65.44;102705.78;4949322;28;20570;-78
2021/03/02 10:58:32;;;;;;;11.68;7.25;;;;;;;12.09;63.59;102703.91;4947803;28;20147;-78
2021/03/02 11:00:58;;;;;;;11.77;7.30;;;;;;;12.11;62.10;102712.69;4949764;28;20042;-78
2021/03/02 11:03:24;;;;;;;10.55;6.85;;;;;;;12.09;62.45;102711.97;4946784;28;20174;-78
2021/03/02 11:05:50;;;;;;;11.55;7.63;;;;;;;12.12;63.65;102711.72;4941679;28;20165;-77
2021/03/02 11:08:16;;;;;;;9.77;6.80;;;;;;;12.23;62.53;102706.28;4950205;28;20039;-78
2021/03/02 11:10:41;;;;;;;9.82;6.95;;;;;;;12.38;63.28;102706.84;4956937;28;20066;-78
2021/03/02 11:13:07;;;;;;;13.88;7.00;;;;;;;12.49;63.98;102704.09;4961892;28;20111;-78
2021/03/02 11:15:32;;;;;;;12.18;7.30;;;;;;;12.60;62.41;102700.47;4942286;28;20070;-77
2021/03/02 11:17:57;;;;;;;11.02;7.85;;;;;;;12.66;61.03;102708.03;4959096;28;20055;-78
2021/03/02 11:20:23;;;;;;;12.65;8.02;;;;;;;12.75;62.51;102701.00;4950726;28;20046;-78